createdAt,value
2019-04-30T00:00:00.971Z,55.46
2019-04-30T00:02:38.415Z,55.52
2019-04-30T00:05:05.426Z,55.29
2019-04-30T00:07:35.758Z,55.48
2019-04-30T00:10:09.442Z,55.60
2019-04-30T00:12:39.702Z,55.33
2019-04-30T00:15:11.098Z,54.67
2019-04-30T00:17:41.109Z,55.40
2019-04-30T00:20:10.829Z,54.99
2019-04-30T00:22:47.058Z,55.28
2019-04-30T00:25:11.898Z,55.97
2019-04-30T00:27:41.549Z,55.56
2019-04-30T00:30:11.412Z,56.06
2019-04-30T00:32:43.654Z,55.74
2019-04-30T00:35:16.174Z,55.32
2019-04-30T00:37:44.978Z,55.35
2019-04-30T00:40:15.452Z,56.13
2019-04-30T00:42:45.768Z,56.34
2019-04-30T00:45:15.607Z,57.12
2019-04-30T00:47:47.868Z,56.56
2019-04-30T00:50:16.578Z,56.93
2019-04-30T00:52:46.234Z,57.18
2019-04-30T00:55:15.872Z,57.08
2019-04-30T00:57:47.421Z,56.41
2019-04-30T01:00:25.101Z,56.88
2019-04-30T01:02:51.162Z,56.92
2019-04-30T01:05:21.727Z,56.88
2019-04-30T01:07:51.928Z,57.35
2019-04-30T01:10:24.784Z,57.41
2019-04-30T01:12:53.406Z,57.96
2019-04-30T01:15:23.409Z,57.35
2019-04-30T01:17:53.979Z,57.76
2019-04-30T01:20:31.389Z,56.87
2019-04-30T01:22:56.335Z,57.62
2019-04-30T01:25:25.967Z,56.28
2019-04-30T01:27:55.690Z,57.20
2019-04-30T01:30:25.393Z,57.38
2019-04-30T01:32:56.557Z,58.22
2019-04-30T01:35:29.056Z,57.71
2019-04-30T01:37:59.455Z,57.51
2019-04-30T01:40:29.230Z,57.63
2019-04-30T01:42:59.313Z,57.69
2019-04-30T01:45:31.641Z,57.72
2019-04-30T01:48:08.459Z,57.63
2019-04-30T01:50:33.707Z,57.45
2019-04-30T01:53:04.779Z,57.80
2019-04-30T01:55:50.789Z,58.00
2019-04-30T01:58:39.339Z,58.93
2019-04-30T02:01:10.595Z,58.14
2019-04-30T02:03:40.255Z,58.55
2019-04-30T02:06:11.587Z,58.48
2019-04-30T02:08:41.288Z,57.94
2019-04-30T02:11:10.917Z,58.08
2019-04-30T02:13:40.576Z,58.29
2019-04-30T02:16:10.207Z,58.46
2019-04-30T02:18:40.125Z,58.58
2019-04-30T02:21:11.448Z,59.42
2019-04-30T02:23:41.189Z,59.32
2019-04-30T02:26:10.815Z,59.40
2019-04-30T02:28:40.480Z,59.80
2019-04-30T02:31:10.110Z,59.45
2019-04-30T02:33:41.404Z,59.54
2019-04-30T02:36:24.523Z,60.04
2019-04-30T02:38:56.050Z,59.95
2019-04-30T02:41:28.679Z,59.66
2019-04-30T02:43:59.880Z,60.74
2019-04-30T02:46:32.260Z,59.78
2019-04-30T02:49:03.590Z,59.80
2019-04-30T02:51:33.785Z,60.78
2019-04-30T02:54:09.881Z,60.22
2019-04-30T02:56:41.209Z,59.52
2019-04-30T02:59:10.839Z,60.99
2019-04-30T03:01:41.615Z,61.15
2019-04-30T03:04:11.247Z,60.62
2019-04-30T03:06:40.915Z,62.00
2019-04-30T03:09:10.946Z,61.54
2019-04-30T03:11:41.101Z,62.25
2019-04-30T03:14:11.143Z,62.77
2019-04-30T03:16:42.860Z,62.80
2019-04-30T03:19:19.527Z,62.05
2019-04-30T03:21:52.989Z,63.15
2019-04-30T03:24:22.608Z,63.35
2019-04-30T03:26:52.587Z,62.23
2019-04-30T03:29:24.005Z,62.73
2019-04-30T03:31:54.301Z,62.42
2019-04-30T03:34:25.536Z,62.86
2019-04-30T03:36:55.281Z,62.96
2019-04-30T03:39:24.900Z,63.25
2019-04-30T03:41:54.554Z,63.20
2019-04-30T03:44:25.989Z,63.83
2019-04-30T03:46:55.533Z,64.03
2019-04-30T03:49:25.163Z,64.70
2019-04-30T03:51:54.821Z,64.31
2019-04-30T03:54:24.444Z,63.95
2019-04-30T03:56:55.800Z,64.24
2019-04-30T03:59:25.520Z,64.21
2019-04-30T04:02:12.787Z,63.87
2019-04-30T04:04:53.156Z,64.08
2019-04-30T04:07:33.294Z,64.11
2019-04-30T04:10:20.850Z,64.14
2019-04-30T04:12:50.521Z,64.04
2019-04-30T04:15:20.151Z,64.49
2019-04-30T04:17:50.373Z,64.48
2019-04-30T04:20:20.536Z,64.27
2019-04-30T04:22:50.165Z,64.54
2019-04-30T04:25:20.587Z,63.81
2019-04-30T04:27:51.088Z,63.85
2019-04-30T04:30:21.186Z,63.88
2019-04-30T04:32:50.825Z,63.73
2019-04-30T04:35:20.482Z,63.29
2019-04-30T04:37:50.105Z,63.84
2019-04-30T04:40:21.048Z,62.53
2019-04-30T04:42:50.963Z,63.70
2019-04-30T04:45:20.609Z,62.88
2019-04-30T04:47:50.678Z,62.74
2019-04-30T04:50:20.443Z,63.13
2019-04-30T04:52:50.067Z,62.74
2019-04-30T04:55:22.143Z,62.89
2019-04-30T04:57:51.062Z,63.05
2019-04-30T05:00:21.503Z,62.78
2019-04-30T05:02:55.581Z,62.75
2019-04-30T05:05:25.240Z,62.51
2019-04-30T05:07:54.865Z,62.14
2019-04-30T05:10:26.780Z,61.98
2019-04-30T05:12:56.517Z,61.89
2019-04-30T05:15:26.398Z,62.28
2019-04-30T05:17:56.264Z,61.77
2019-04-30T05:20:25.914Z,62.51
2019-04-30T05:22:55.545Z,61.87
2019-04-30T05:25:25.209Z,61.77
2019-04-30T05:27:54.842Z,62.13
2019-04-30T05:30:24.497Z,61.53
2019-04-30T05:32:54.125Z,61.68
2019-04-30T05:35:23.973Z,60.94
2019-04-30T05:37:55.039Z,60.77
2019-04-30T05:40:24.707Z,60.75
2019-04-30T05:42:54.333Z,60.40
2019-04-30T05:45:24.067Z,59.99
2019-04-30T05:47:53.697Z,59.96
2019-04-30T05:50:23.637Z,59.08
2019-04-30T05:52:53.266Z,59.67
2019-04-30T05:55:22.933Z,58.95
2019-04-30T05:57:56.210Z,59.26
2019-04-30T06:00:24.082Z,59.00
2019-04-30T06:02:53.710Z,58.48
2019-04-30T06:05:24.078Z,57.99
2019-04-30T06:07:55.451Z,57.44
2019-04-30T06:10:27.049Z,57.43
2019-04-30T06:13:10.046Z,57.26
2019-04-30T06:15:53.142Z,57.34
2019-04-30T06:18:22.765Z,56.66
2019-04-30T06:20:52.569Z,56.68
2019-04-30T06:23:22.334Z,56.36
2019-04-30T06:25:59.383Z,56.68
2019-04-30T06:28:24.304Z,56.00
2019-04-30T06:30:54.497Z,56.14
2019-04-30T06:33:24.208Z,55.70
2019-04-30T06:35:55.775Z,55.03
2019-04-30T06:38:25.409Z,55.00
2019-04-30T06:40:55.056Z,55.23
2019-04-30T06:43:25.554Z,54.60
2019-04-30T06:45:55.302Z,54.84
2019-04-30T06:48:25.293Z,55.13
2019-04-30T06:50:54.928Z,54.57
2019-04-30T06:53:24.588Z,54.41
2019-04-30T06:55:54.207Z,53.96
2019-04-30T06:58:24.074Z,54.42
2019-04-30T07:00:53.698Z,54.31
2019-04-30T07:03:24.099Z,53.50
2019-04-30T07:05:53.738Z,52.98
2019-04-30T07:08:39.638Z,52.77
2019-04-30T07:11:21.845Z,53.59
2019-04-30T07:13:52.296Z,53.14
2019-04-30T07:16:22.354Z,52.09
2019-04-30T07:18:52.216Z,52.29
2019-04-30T07:21:22.156Z,51.94
2019-04-30T07:23:52.109Z,51.62
2019-04-30T07:26:24.368Z,50.12
2019-04-30T07:28:55.318Z,51.17
2019-04-30T07:31:25.048Z,51.45
2019-04-30T07:33:54.706Z,50.90
2019-04-30T07:36:42.505Z,50.32
2019-04-30T07:38:56.725Z,50.24
2019-04-30T07:41:30.788Z,50.22
2019-04-30T07:43:59.308Z,50.08
2019-04-30T07:46:29.954Z,49.21
2019-04-30T07:49:00.180Z,48.99
2019-04-30T07:51:32.080Z,48.58
2019-04-30T07:54:04.153Z,48.76
2019-04-30T07:56:38.031Z,48.06
2019-04-30T07:59:05.506Z,47.52
2019-04-30T08:01:35.129Z,47.06
2019-04-30T08:04:22.886Z,47.09
2019-04-30T08:06:52.532Z,45.91
2019-04-30T08:09:22.360Z,45.24
2019-04-30T08:11:52.316Z,45.28
2019-04-30T08:14:24.509Z,45.54
2019-04-30T08:16:53.813Z,44.68
2019-04-30T08:19:23.475Z,44.23
2019-04-30T08:21:53.108Z,43.92
2019-04-30T08:24:22.766Z,43.99
2019-04-30T08:26:53.017Z,41.96
2019-04-30T08:29:22.729Z,42.54
2019-04-30T08:31:52.382Z,41.80
2019-04-30T08:34:22.470Z,43.03
2019-04-30T08:36:53.327Z,44.20
2019-04-30T08:39:23.034Z,42.28
2019-04-30T08:41:52.671Z,40.78
2019-04-30T08:44:22.400Z,41.00
2019-04-30T08:46:52.431Z,39.88
2019-04-30T08:49:22.600Z,39.13
2019-04-30T08:51:52.692Z,39.36
2019-04-30T08:54:22.457Z,40.20
2019-04-30T08:56:52.094Z,39.31
2019-04-30T08:59:22.283Z,38.36
2019-04-30T09:01:51.905Z,39.21
2019-04-30T09:04:21.611Z,38.50
2019-04-30T09:06:51.249Z,39.92
2019-04-30T09:09:21.594Z,37.96
2019-04-30T09:11:55.390Z,38.54
2019-04-30T09:14:22.785Z,38.38
2019-04-30T09:16:54.269Z,39.15
2019-04-30T09:19:24.212Z,38.97
2019-04-30T09:21:54.174Z,37.08
2019-04-30T09:24:23.846Z,36.81
2019-04-30T09:26:53.494Z,34.85
2019-04-30T09:29:23.123Z,34.66
2019-04-30T09:31:52.802Z,33.72
2019-04-30T09:34:22.806Z,34.61
2019-04-30T09:36:52.808Z,33.57
2019-04-30T09:39:23.169Z,33.30
2019-04-30T09:41:52.883Z,32.02
2019-04-30T09:44:22.519Z,30.97
2019-04-30T09:46:52.187Z,30.69
2019-04-30T09:49:22.442Z,30.64
2019-04-30T09:51:52.424Z,30.00
2019-04-30T09:54:22.737Z,29.87
2019-04-30T09:56:52.887Z,30.61
2019-04-30T09:59:22.636Z,29.36
2019-04-30T10:01:52.488Z,28.52
2019-04-30T10:04:23.049Z,27.52
2019-04-30T10:06:54.279Z,26.63
2019-04-30T10:09:24.011Z,26.79
2019-04-30T10:11:59.575Z,26.70
2019-04-30T10:14:29.330Z,26.16
2019-04-30T10:17:00.616Z,25.94
2019-04-30T10:19:30.247Z,25.24
2019-04-30T10:21:59.905Z,24.46
2019-04-30T10:24:29.649Z,23.16
2019-04-30T10:27:00.311Z,22.95
2019-04-30T10:29:30.206Z,22.90
2019-04-30T10:31:59.889Z,23.48
2019-04-30T10:34:29.553Z,23.73
2019-04-30T10:37:01.249Z,24.25
2019-04-30T10:39:30.932Z,24.68
2019-04-30T10:42:00.648Z,22.92
2019-04-30T10:44:30.345Z,22.98
2019-04-30T10:46:59.997Z,23.41
2019-04-30T10:49:29.615Z,22.75
2019-04-30T10:52:01.117Z,21.95
2019-04-30T10:54:30.705Z,22.59
2019-04-30T10:57:00.363Z,22.42
2019-04-30T10:59:29.989Z,21.92
2019-04-30T11:01:59.648Z,23.15
2019-04-30T11:04:29.346Z,21.68
2019-04-30T11:07:00.582Z,22.21
2019-04-30T11:09:31.009Z,21.53
2019-04-30T11:12:02.970Z,21.79
2019-04-30T11:14:32.364Z,21.35
2019-04-30T11:17:02.381Z,21.30
2019-04-30T11:19:32.298Z,21.70
2019-04-30T11:22:02.355Z,22.64
2019-04-30T11:24:38.176Z,23.24
2019-04-30T11:27:04.130Z,23.97
2019-04-30T11:29:34.258Z,23.95
2019-04-30T11:32:05.936Z,22.93
2019-04-30T11:34:35.702Z,21.09
2019-04-30T11:37:05.392Z,21.09
2019-04-30T11:39:35.184Z,20.44
2019-04-30T11:42:04.985Z,22.36
2019-04-30T11:44:35.044Z,22.33
2019-04-30T11:47:13.592Z,22.33
2019-04-30T11:49:43.254Z,22.68
2019-04-30T11:52:12.888Z,22.29
2019-04-30T11:54:49.200Z,22.79
2019-04-30T11:57:13.928Z,22.00
2019-04-30T11:59:43.576Z,22.47
2019-04-30T12:02:21.818Z,22.47
2019-04-30T12:04:52.200Z,21.72
2019-04-30T12:07:32.201Z,21.32
2019-04-30T12:10:05.896Z,21.55
2019-04-30T12:12:35.613Z,20.67
2019-04-30T12:15:09.192Z,20.48
2019-04-30T12:17:38.924Z,20.78
2019-04-30T12:20:08.812Z,20.13
2019-04-30T12:22:39.701Z,21.79
2019-04-30T12:25:10.040Z,20.02
2019-04-30T12:27:39.820Z,21.58
2019-04-30T12:30:10.513Z,21.59
2019-04-30T12:32:40.337Z,22.58
2019-04-30T12:35:10.489Z,23.22
2019-04-30T12:37:40.137Z,22.70
2019-04-30T12:40:25.589Z,24.33
2019-04-30T12:42:41.337Z,22.99
2019-04-30T12:45:11.233Z,22.96
2019-04-30T12:47:45.263Z,23.88
2019-04-30T12:50:32.281Z,23.88
2019-04-30T12:53:03.591Z,25.21
2019-04-30T12:55:34.903Z,23.94
2019-04-30T12:58:05.161Z,23.81
2019-04-30T13:00:35.095Z,24.13
2019-04-30T13:03:04.723Z,22.78
2019-04-30T13:05:34.382Z,24.07
2019-04-30T13:08:04.671Z,24.05
2019-04-30T13:10:35.051Z,25.06
2019-04-30T13:13:05.251Z,24.24
2019-04-30T13:15:35.214Z,26.21
2019-04-30T13:18:04.839Z,24.95
2019-04-30T13:20:34.604Z,25.35
2019-04-30T13:23:04.786Z,25.82
2019-04-30T13:25:35.700Z,24.81
2019-04-30T13:28:07.498Z,24.87
2019-04-30T13:30:39.539Z,24.78
2019-04-30T13:33:11.435Z,24.89
2019-04-30T13:35:41.080Z,23.95
2019-04-30T13:38:15.173Z,24.89
2019-04-30T13:40:49.349Z,24.28
2019-04-30T13:43:20.652Z,23.99
2019-04-30T13:45:51.867Z,23.98
2019-04-30T13:48:22.068Z,24.63
2019-04-30T13:50:51.694Z,24.95
2019-04-30T13:53:21.344Z,24.54
2019-04-30T13:55:50.988Z,24.79
2019-04-30T13:58:20.632Z,24.36
2019-04-30T14:00:50.274Z,24.00
2019-04-30T14:03:29.050Z,23.56
2019-04-30T14:05:59.404Z,23.20
2019-04-30T14:08:30.782Z,24.39
2019-04-30T14:11:00.409Z,24.54
2019-04-30T14:13:30.067Z,24.03
2019-04-30T14:15:59.694Z,25.01
2019-04-30T14:18:33.836Z,24.22
2019-04-30T14:21:01.088Z,24.80
2019-04-30T14:23:31.338Z,24.18
2019-04-30T14:26:01.271Z,24.30
2019-04-30T14:28:31.303Z,25.15
2019-04-30T14:31:00.966Z,24.39
2019-04-30T14:33:31.209Z,23.89
2019-04-30T14:36:00.974Z,24.82
2019-04-30T14:38:30.563Z,23.58
2019-04-30T14:41:01.286Z,23.74
2019-04-30T14:43:33.724Z,24.37
2019-04-30T14:46:22.627Z,25.23
2019-04-30T14:48:54.885Z,25.16
2019-04-30T14:51:25.084Z,25.34
2019-04-30T14:54:02.433Z,25.31
2019-04-30T14:56:33.707Z,24.85
2019-04-30T14:59:18.694Z,24.48
2019-04-30T15:01:52.921Z,24.80
2019-04-30T15:04:22.574Z,23.83
2019-04-30T15:06:52.242Z,23.14
2019-04-30T15:09:22.292Z,23.34
2019-04-30T15:11:52.138Z,23.57
2019-04-30T15:14:21.760Z,23.18
2019-04-30T15:16:51.559Z,23.98
2019-04-30T15:19:21.185Z,24.16
2019-04-30T15:21:50.845Z,23.55
2019-04-30T15:24:29.303Z,23.64
2019-04-30T15:26:58.986Z,23.92
2019-04-30T15:29:29.110Z,23.70
2019-04-30T15:31:59.389Z,24.39
2019-04-30T15:34:29.424Z,24.44
2019-04-30T15:36:59.262Z,24.80
2019-04-30T15:39:36.365Z,24.99
2019-04-30T15:42:06.164Z,24.13
2019-04-30T15:44:39.986Z,24.07
2019-04-30T15:47:09.155Z,24.70
2019-04-30T15:49:38.667Z,25.65
2019-04-30T15:52:10.626Z,24.79
2019-04-30T15:54:39.655Z,23.67
2019-04-30T15:57:09.280Z,23.80
2019-04-30T15:59:40.405Z,23.89
2019-04-30T16:02:18.785Z,23.89
2019-04-30T16:04:53.069Z,23.88
2019-04-30T16:07:22.862Z,23.52
2019-04-30T16:10:10.421Z,22.90
2019-04-30T16:12:58.749Z,23.18
2019-04-30T16:15:29.776Z,22.35
2019-04-30T16:18:01.074Z,22.79
2019-04-30T16:20:30.969Z,20.74
2019-04-30T16:23:00.665Z,19.19
2019-04-30T16:25:30.433Z,19.07
2019-04-30T16:28:00.027Z,19.47
2019-04-30T16:30:29.677Z,20.30
2019-04-30T16:32:59.701Z,20.63
2019-04-30T16:35:29.611Z,20.90
2019-04-30T16:37:59.510Z,20.76
2019-04-30T16:40:29.172Z,22.35
2019-04-30T16:42:58.804Z,22.58
2019-04-30T16:45:29.068Z,23.52
2019-04-30T16:47:58.764Z,23.55
2019-04-30T16:50:29.900Z,24.01
2019-04-30T16:52:59.625Z,24.30
2019-04-30T16:55:29.272Z,25.28
2019-04-30T16:57:58.902Z,25.33
2019-04-30T17:00:30.719Z,25.18
2019-04-30T17:03:01.667Z,25.67
2019-04-30T17:05:39.601Z,25.46
2019-04-30T17:08:16.817Z,25.86
2019-04-30T17:10:50.361Z,25.64
2019-04-30T17:13:21.087Z,25.84
2019-04-30T17:15:58.124Z,25.59
2019-04-30T17:18:29.652Z,26.17
2019-04-30T17:20:59.102Z,26.44
2019-04-30T17:23:29.328Z,27.31
2019-04-30T17:25:58.963Z,27.44
2019-04-30T17:28:28.623Z,27.18
2019-04-30T17:30:58.904Z,26.92
2019-04-30T17:33:28.580Z,26.54
2019-04-30T17:35:58.200Z,27.07
2019-04-30T17:38:27.848Z,27.72
2019-04-30T17:40:57.481Z,28.35
2019-04-30T17:43:27.143Z,29.01
2019-04-30T17:45:58.524Z,29.00
2019-04-30T17:48:29.141Z,30.20
2019-04-30T17:51:00.335Z,30.60
2019-04-30T17:53:30.854Z,30.46
2019-04-30T17:56:00.491Z,31.86
2019-04-30T17:58:30.145Z,31.24
2019-04-30T18:01:01.415Z,31.56
2019-04-30T18:03:31.142Z,31.99
2019-04-30T18:06:00.776Z,31.89
2019-04-30T18:08:30.542Z,32.72
2019-04-30T18:11:00.245Z,33.18
2019-04-30T18:13:29.887Z,32.56
2019-04-30T18:16:00.456Z,33.56
2019-04-30T18:18:31.799Z,32.70
2019-04-30T18:21:06.084Z,33.09
2019-04-30T18:23:50.164Z,33.90
2019-04-30T18:26:19.788Z,33.20
2019-04-30T18:28:49.441Z,33.17
2019-04-30T18:31:19.078Z,33.13
2019-04-30T18:33:49.284Z,33.39
2019-04-30T18:36:20.629Z,33.85
2019-04-30T18:38:50.621Z,33.99
2019-04-30T18:41:20.255Z,34.13
2019-04-30T18:43:49.915Z,34.06
2019-04-30T18:46:19.553Z,34.58
2019-04-30T18:48:50.273Z,34.95
2019-04-30T18:51:35.919Z,35.23
2019-04-30T18:53:52.089Z,35.21
2019-04-30T18:56:22.137Z,35.20
2019-04-30T18:58:52.077Z,35.90
2019-04-30T19:01:22.077Z,36.38
2019-04-30T19:03:51.706Z,36.82
2019-04-30T19:06:26.058Z,37.52
2019-04-30T19:09:12.458Z,37.64
2019-04-30T19:11:43.825Z,38.50
2019-04-30T19:14:15.098Z,38.69
2019-04-30T19:16:55.136Z,38.99
2019-04-30T19:19:26.408Z,39.20
2019-04-30T19:21:56.067Z,39.11
2019-04-30T19:24:25.726Z,39.49
2019-04-30T19:26:55.397Z,39.53
2019-04-30T19:29:25.013Z,39.72
2019-04-30T19:31:54.866Z,40.74
2019-04-30T19:34:24.602Z,41.36
2019-04-30T19:36:54.390Z,41.49
2019-04-30T19:39:24.032Z,42.10
2019-04-30T19:41:53.689Z,42.16
2019-04-30T19:44:23.346Z,42.08
2019-04-30T19:46:53.368Z,42.01
2019-04-30T19:49:22.988Z,42.38
2019-04-30T19:52:05.591Z,42.87
2019-04-30T19:54:24.059Z,42.85
2019-04-30T19:56:53.721Z,43.17
2019-04-30T19:59:23.340Z,43.37
2019-04-30T20:01:53.386Z,43.94
2019-04-30T20:04:32.608Z,44.10
2019-04-30T20:06:54.349Z,44.37
2019-04-30T20:09:23.982Z,45.00
2019-04-30T20:11:56.626Z,45.80
2019-04-30T20:14:24.959Z,45.69
2019-04-30T20:16:54.926Z,46.44
2019-04-30T20:19:24.868Z,46.30
2019-04-30T20:21:54.972Z,46.40
2019-04-30T20:24:24.960Z,46.19
2019-04-30T20:27:04.960Z,47.04
2019-04-30T20:29:25.929Z,46.65
2019-04-30T20:31:55.735Z,46.76
2019-04-30T20:34:25.391Z,46.86
2019-04-30T20:36:55.024Z,46.67
2019-04-30T20:39:29.363Z,46.72
2019-04-30T20:41:59.260Z,46.27
2019-04-30T20:44:29.114Z,46.10
2019-04-30T20:46:59.142Z,46.05
2019-04-30T20:49:29.209Z,46.05
2019-04-30T20:51:59.082Z,45.96
2019-04-30T20:54:29.186Z,46.01
2019-04-30T20:56:59.108Z,45.84
2019-04-30T20:59:29.046Z,45.79
2019-04-30T21:01:58.721Z,45.81
2019-04-30T21:04:28.389Z,46.16
2019-04-30T21:06:59.507Z,46.00
2019-04-30T21:09:29.253Z,45.65
2019-04-30T21:11:58.920Z,46.30
2019-04-30T21:14:28.539Z,46.13
2019-04-30T21:16:58.470Z,45.95
2019-04-30T21:19:28.128Z,46.63
2019-04-30T21:21:59.490Z,46.23
2019-04-30T21:24:29.291Z,46.16
2019-04-30T21:26:58.918Z,46.83
2019-04-30T21:29:29.571Z,46.29
2019-04-30T21:32:06.700Z,46.70
2019-04-30T21:34:39.372Z,47.05
2019-04-30T21:37:09.430Z,47.36
2019-04-30T21:39:39.040Z,47.04
2019-04-30T21:42:09.294Z,47.32
2019-04-30T21:44:39.113Z,47.06
2019-04-30T21:47:08.842Z,47.42
2019-04-30T21:49:38.504Z,47.18
2019-04-30T21:52:08.130Z,48.03
2019-04-30T21:54:38.792Z,48.12
2019-04-30T21:57:08.485Z,48.44
2019-04-30T21:59:38.856Z,48.10
2019-04-30T22:02:09.020Z,47.98
2019-04-30T22:04:38.669Z,48.46
2019-04-30T22:07:09.352Z,48.74
2019-04-30T22:09:39.130Z,48.77
2019-04-30T22:12:09.248Z,48.80
2019-04-30T22:14:38.892Z,48.47
2019-04-30T22:17:09.296Z,48.93
2019-04-30T22:19:38.944Z,49.36
2019-04-30T22:22:09.369Z,49.38
2019-04-30T22:24:39.102Z,48.89
2019-04-30T22:27:08.726Z,49.24
2019-04-30T22:29:41.919Z,49.40
2019-04-30T22:32:09.699Z,49.03
2019-04-30T22:34:39.352Z,49.53
2019-04-30T22:37:08.981Z,48.95
2019-04-30T22:39:40.280Z,49.40
2019-04-30T22:42:25.029Z,49.09
2019-04-30T22:44:54.996Z,48.71
2019-04-30T22:47:25.040Z,49.11
2019-04-30T22:49:54.687Z,49.22
2019-04-30T22:52:24.321Z,49.74
2019-04-30T22:54:54.374Z,49.29
2019-04-30T22:57:24.027Z,49.69
2019-04-30T22:59:53.656Z,49.79
2019-04-30T23:02:28.210Z,49.47
2019-04-30T23:04:58.909Z,50.19
2019-04-30T23:07:28.839Z,49.47
2019-04-30T23:09:58.522Z,49.97
2019-04-30T23:12:28.233Z,49.55
2019-04-30T23:14:57.867Z,49.65
2019-04-30T23:17:27.616Z,49.76
2019-04-30T23:19:57.348Z,50.14
2019-04-30T23:22:27.262Z,50.66
2019-04-30T23:24:57.229Z,50.18
2019-04-30T23:27:26.890Z,50.59
2019-04-30T23:30:03.125Z,50.18
2019-04-30T23:32:27.870Z,50.13
2019-04-30T23:34:57.505Z,50.11
2019-04-30T23:37:27.228Z,51.09
2019-04-30T23:39:58.434Z,50.32
2019-04-30T23:42:28.091Z,50.73
2019-04-30T23:44:58.008Z,50.66
2019-04-30T23:47:27.662Z,50.14
2019-04-30T23:49:57.286Z,50.50
2019-04-30T23:52:27.246Z,50.41
2019-04-30T23:54:56.873Z,50.77
2019-04-30T23:57:26.515Z,50.30
2019-04-30T23:59:56.145Z,51.13
